Time,TemperatureF,DewpointF,PressureIn,WindDirection,WindDirectionDegrees,WindSpeedMPH,WindSpeedGustMPH,Humidity,HourlyPrecipIn,Conditions,Clouds,dailyrainin,SolarRadiationWatts/m^2,SoftwareType,DateUTC
2013-09-21 00:03:00,80.5,48.0,29.68,NW,307,8.0,12.0,32,0.00,,CLR,0.00,0.00,VWS V14.01,2013-09-21 07:03:00,
2013-09-21 00:08:00,80.3,46.1,29.68,NW,318,7.0,13.0,30,0.00,,CLR,0.00,0.00,VWS V14.01,2013-09-21 07:08:00,
2013-09-21 00:13:00,80.3,44.3,29.68,WNW,300,8.0,13.0,28,0.00,,CLR,0.00,0.00,VWS V14.01,2013-09-21 07:13:00,
2013-09-21 00:19:00,80.5,47.1,29.68,NW,326,6.0,10.0,31,0.00,,CLR,0.00,0.00,VWS V14.01,2013-09-21 07:19:00,
2013-09-21 00:24:00,79.9,47.4,29.68,NW,322,3.0,13.0,32,0.00,,CLR,0.00,0.00,VWS V14.01,2013-09-21 07:24:00,
2013-09-21 00:29:00,79.6,46.3,29.68,NW,317,12.0,17.0,31,0.00,,CLR,0.00,0.00,VWS V14.01,2013-09-21 07:29:00,
2013-09-21 00:34:00,79.2,47.7,29.68,WNW,286,10.0,15.0,33,0.00,,CLR,0.00,0.00,VWS V14.01,2013-09-21 07:34:00,
2013-09-21 00:39:00,79.0,47.5,29.68,NW,320,7.0,14.0,33,0.00,,CLR,0.00,0.00,VWS V14.01,2013-09-21 07:39:00,
2013-09-21 00:44:00,78.8,47.3,29.68,West,261,9.0,15.0,33,0.00,,CLR,0.00,0.00,VWS V14.01,2013-09-21 07:44:00,
2013-09-21 00:49:00,78.5,50.1,29.68,WNW,286,14.0,15.0,37,0.00,,CLR,0.00,0.00,VWS V14.01,2013-09-21 07:49:00,
2013-09-21 00:54:00,78.1,50.5,29.68,WNW,302,9.0,16.0,38,0.00,,CLR,0.00,0.00,VWS V14.01,2013-09-21 07:54:00,
2013-09-21 00:59:00,77.7,51.5,29.68,West,280,11.0,16.0,40,0.00,,CLR,0.00,0.00,VWS V14.01,2013-09-21 07:59:00,
2013-09-21 01:04:00,77.0,51.5,29.68,NW,305,5.0,14.0,41,0.00,,CLR,0.00,0.00,VWS V14.01,2013-09-21 08:04:00,
2013-09-21 01:09:00,76.7,51.9,29.68,NNW,328,9.0,14.0,42,0.00,,CLR,0.00,0.00,VWS V14.01,2013-09-21 08:09:00,
2013-09-21 01:14:00,76.0,53.2,29.68,WNW,296,10.0,16.0,45,0.00,,CLR,0.00,0.00,VWS V14.01,2013-09-21 08:14:00,
2013-09-21 01:19:00,75.4,53.2,29.69,WNW,300,9.0,14.0,46,0.00,,CLR,0.00,0.00,VWS V14.01,2013-09-21 08:19:00,
2013-09-21 01:24:00,75.1,52.9,29.69,North,350,9.0,14.0,46,0.00,,CLR,0.00,0.00,VWS V14.01,2013-09-21 08:24:00,
2013-09-21 01:29:00,75.1,51.1,29.69,NW,311,6.0,17.0,43,0.00,,CLR,0.00,0.00,VWS V14.01,2013-09-21 08:29:00,
2013-09-21 01:34:00,75.3,53.1,29.69,NW,313,11.0,17.0,46,0.00,,CLR,0.00,0.00,VWS V14.01,2013-09-21 08:34:00,
2013-09-21 01:39:00,75.1,53.5,29.69,NW,318,8.0,19.0,47,0.00,,CLR,0.00,0.00,VWS V14.01,2013-09-21 08:39:00,
2013-09-21 01:44:00,75.1,52.3,29.69,WNW,291,15.0,21.0,45,0.00,,CLR,0.00,0.00,VWS V14.01,2013-09-21 08:44:00,
2013-09-21 01:49:00,75.3,53.1,29.70,NNW,336,10.0,18.0,46,0.00,,CLR,0.00,0.00,VWS V14.01,2013-09-21 08:49:00,
2013-09-21 01:54:00,75.3,52.5,29.70,WNW,300,10.0,16.0,45,0.00,,CLR,0.00,0.00,VWS V14.01,2013-09-21 08:54:00,
2013-09-21 01:59:00,75.4,51.4,29.70,NW,307,8.0,18.0,43,0.00,,CLR,0.00,0.00,VWS V14.01,2013-09-21 08:59:00,
2013-09-21 02:04:00,75.4,50.7,29.70,WNW,288,11.0,15.0,42,0.00,,CLR,0.00,0.00,VWS V14.01,2013-09-21 09:04:00,
2013-09-21 02:09:00,75.8,51.7,29.70,WNW,295,5.0,18.0,43,0.00,,CLR,0.00,0.00,VWS V14.01,2013-09-21 09:09:00,
2013-09-21 02:14:00,75.4,52.0,29.70,NW,311,8.0,16.0,44,0.00,,CLR,0.00,0.00,VWS V14.01,2013-09-21 09:14:00,
2013-09-21 02:19:00,75.3,51.9,29.69,West,273,7.0,18.0,44,0.00,,CLR,0.00,0.00,VWS V14.01,2013-09-21 09:19:00,
2013-09-21 02:24:00,75.1,51.7,29.69,WNW,296,20.0,20.0,44,0.00,,CLR,0.00,0.00,VWS V14.01,2013-09-21 09:24:00,
2013-09-21 02:29:00,75.1,51.7,29.69,WNW,285,14.0,23.0,44,0.00,,CLR,0.00,0.00,VWS V14.01,2013-09-21 09:29:00,
2013-09-21 02:34:00,74.9,52.2,29.70,NW,306,6.0,16.0,45,0.00,,CLR,0.00,0.00,VWS V14.01,2013-09-21 09:34:00,
2013-09-21 02:40:00,74.7,52.0,29.70,WNW,296,16.0,17.0,45,0.00,,CLR,0.00,0.00,VWS V14.01,2013-09-21 09:40:00,
2013-09-21 02:45:00,74.7,52.6,29.70,West,281,7.0,20.0,46,0.00,,CLR,0.00,0.00,VWS V14.01,2013-09-21 09:45:00,
2013-09-21 02:50:00,74.6,52.5,29.70,WNW,288,10.0,17.0,46,0.00,,CLR,0.00,0.00,VWS V14.01,2013-09-21 09:50:00,
2013-09-21 02:55:00,74.4,52.9,29.70,NW,314,7.0,20.0,47,0.00,,CLR,0.00,0.00,VWS V14.01,2013-09-21 09:55:00,
2013-09-21 03:00:00,74.2,52.1,29.70,WNW,288,10.0,14.0,46,0.00,,CLR,0.00,0.00,VWS V14.01,2013-09-21 10:00:00,
2013-09-21 03:05:00,73.9,52.4,29.70,WNW,299,14.0,14.0,47,0.00,,CLR,0.00,0.00,VWS V14.01,2013-09-21 10:05:00,
2013-09-21 03:10:00,73.7,52.8,29.70,NNW,329,5.0,13.0,48,0.00,,CLR,0.00,0.00,VWS V14.01,2013-09-21 10:10:00,
2013-09-21 03:15:00,73.7,52.2,29.70,NW,313,1.0,14.0,47,0.00,,CLR,0.00,0.00,VWS V14.01,2013-09-21 10:15:00,
2013-09-21 03:20:00,73.9,51.8,29.70,NW,307,13.0,16.0,46,0.00,,CLR,0.00,0.00,VWS V14.01,2013-09-21 10:20:00,
2013-09-21 03:25:00,73.9,51.8,29.70,WNW,301,8.0,17.0,46,0.00,,CLR,0.00,0.00,VWS V14.01,2013-09-21 10:25:00,
2013-09-21 03:30:00,73.7,52.2,29.70,NNW,327,10.0,24.0,47,0.00,,CLR,0.00,0.00,VWS V14.01,2013-09-21 10:30:00,
2013-09-21 03:35:00,73.7,51.7,29.70,NW,325,6.0,18.0,46,0.00,,CLR,0.00,0.00,VWS V14.01,2013-09-21 10:35:00,
2013-09-21 03:40:00,73.7,52.2,29.70,NW,305,11.0,21.0,47,0.00,,CLR,0.00,0.00,VWS V14.01,2013-09-21 10:40:00,
2013-09-21 03:45:00,73.7,51.1,29.70,WNW,293,9.0,26.0,45,0.00,,CLR,0.00,0.00,VWS V14.01,2013-09-21 10:45:00,
2013-09-21 03:50:00,73.7,52.2,29.70,WNW,295,21.0,21.0,47,0.00,,CLR,0.00,0.00,VWS V14.01,2013-09-21 10:50:00,
2013-09-21 03:56:00,73.5,51.5,29.70,WNW,302,16.0,26.0,46,0.00,,CLR,0.00,0.00,VWS V14.01,2013-09-21 10:56:00,
2013-09-21 04:01:00,73.5,51.5,29.70,NW,313,11.0,21.0,46,0.00,,CLR,0.00,0.00,VWS V14.01,2013-09-21 11:01:00,
2013-09-21 04:06:00,73.5,51.5,29.70,NW,304,17.0,26.0,46,0.00,,CLR,0.00,0.00,VWS V14.01,2013-09-21 11:06:00,
2013-09-21 04:11:00,73.2,52.4,29.70,WNW,302,19.0,19.0,48,0.00,,CLR,0.00,0.00,VWS V14.01,2013-09-21 11:11:00,
2013-09-21 04:16:00,73.0,52.2,29.70,NW,304,25.0,26.0,48,0.00,,CLR,0.00,0.00,VWS V14.01,2013-09-21 11:16:00,
2013-09-21 04:21:00,72.8,52.0,29.70,NW,307,12.0,18.0,48,0.00,,CLR,0.00,0.00,VWS V14.01,2013-09-21 11:21:00,
2013-09-21 04:26:00,72.7,52.5,29.70,WNW,288,16.0,22.0,49,0.00,,CLR,0.00,0.00,VWS V14.01,2013-09-21 11:26:00,
2013-09-21 04:31:00,72.5,52.3,29.70,West,279,15.0,25.0,49,0.00,,CLR,0.00,0.00,VWS V14.01,2013-09-21 11:31:00,
2013-09-21 04:36:00,72.3,52.6,29.70,WNW,302,19.0,25.0,50,0.00,,CLR,0.00,0.00,VWS V14.01,2013-09-21 11:36:00,
2013-09-21 04:41:00,72.1,52.5,29.70,WNW,283,23.0,25.0,50,0.00,,CLR,0.00,0.00,VWS V14.01,2013-09-21 11:41:00,
2013-09-21 04:46:00,72.0,52.9,29.70,West,279,18.0,19.0,51,0.00,,CLR,0.00,0.00,VWS V14.01,2013-09-21 11:46:00,
2013-09-21 04:51:00,72.0,51.8,29.70,WNW,290,17.0,21.0,49,0.00,,CLR,0.00,0.00,VWS V14.01,2013-09-21 11:51:00,
2013-09-21 04:56:00,72.1,51.3,29.70,NW,311,17.0,22.0,48,0.00,,CLR,0.00,0.00,VWS V14.01,2013-09-21 11:56:00,
2013-09-21 05:01:00,72.3,52.1,29.70,West,267,13.0,14.0,49,0.00,,CLR,0.00,0.00,VWS V14.01,2013-09-21 12:01:00,
2013-09-21 05:06:00,72.1,52.5,29.70,WNW,300,14.0,17.0,50,0.00,,CLR,0.00,0.00,VWS V14.01,2013-09-21 12:06:00,
2013-09-21 05:11:00,72.0,52.4,29.70,WNW,303,21.0,21.0,50,0.00,,CLR,0.00,0.00,VWS V14.01,2013-09-21 12:11:00,
2013-09-21 05:16:00,72.0,51.8,29.71,WNW,286,17.0,17.0,49,0.00,,CLR,0.00,0.00,VWS V14.01,2013-09-21 12:16:00,
2013-09-21 05:21:00,72.1,51.3,29.71,WNW,295,11.0,18.0,48,0.00,,CLR,0.00,0.00,VWS V14.01,2013-09-21 12:21:00,
2013-09-21 05:26:00,72.1,51.3,29.71,WNW,296,11.0,22.0,48,0.00,,CLR,0.00,0.00,VWS V14.01,2013-09-21 12:26:00,
2013-09-21 05:31:00,72.1,51.3,29.71,WNW,287,9.0,17.0,48,0.00,,CLR,0.00,0.00,VWS V14.01,2013-09-21 12:31:00,
2013-09-21 05:36:00,72.1,53.0,29.71,NW,306,13.0,18.0,51,0.00,,CLR,0.00,0.00,VWS V14.01,2013-09-21 12:36:00,
2013-09-21 05:41:00,72.3,50.4,29.71,West,277,8.0,15.0,46,0.00,,CLR,0.00,0.00,VWS V14.01,2013-09-21 12:41:00,
2013-09-21 05:46:00,72.5,50.6,29.71,NW,317,15.0,18.0,46,0.00,,CLR,0.00,0.00,VWS V14.01,2013-09-21 12:46:00,
2013-09-21 05:51:00,72.5,50.6,29.71,NW,304,13.0,18.0,46,0.00,,CLR,0.00,0.00,VWS V14.01,2013-09-21 12:51:00,
2013-09-21 05:56:00,72.7,49.5,29.71,WNW,301,12.0,16.0,44,0.00,,CLR,0.00,0.00,VWS V14.01,2013-09-21 12:56:00,
2013-09-21 06:01:00,72.8,49.6,29.71,WNW,294,8.0,15.0,44,0.00,,CLR,0.00,0.00,VWS V14.01,2013-09-21 13:01:00,
2013-09-21 06:06:00,73.0,50.4,29.71,NW,312,10.0,14.0,45,0.00,,CLR,0.00,0.00,VWS V14.01,2013-09-21 13:06:00,
2013-09-21 06:11:00,72.8,50.2,29.71,WNW,283,10.0,13.0,45,0.00,,CLR,0.00,0.00,VWS V14.01,2013-09-21 13:11:00,
2013-09-21 06:16:00,72.5,50.6,29.71,WNW,290,14.0,18.0,46,0.00,,CLR,0.00,0.00,VWS V14.01,2013-09-21 13:16:00,
2013-09-21 06:21:00,72.3,51.0,29.71,NW,310,13.0,15.0,47,0.00,,CLR,0.00,0.00,VWS V14.01,2013-09-21 13:21:00,
2013-09-21 06:26:00,72.1,50.8,29.71,WNW,287,14.0,20.0,47,0.00,,CLR,0.00,0.00,VWS V14.01,2013-09-21 13:26:00,
2013-09-21 06:31:00,71.8,51.1,29.71,WNW,290,17.0,24.0,48,0.00,,CLR,0.00,0.00,VWS V14.01,2013-09-21 13:31:00,
2013-09-21 06:37:00,72.1,48.4,29.71,WNW,296,17.0,19.0,43,0.00,,CLR,0.00,5.00,VWS V14.01,2013-09-21 13:37:00,
2013-09-21 06:42:00,72.7,47.0,29.71,WNW,302,6.0,16.0,40,0.00,,CLR,0.00,9.00,VWS V14.01,2013-09-21 13:42:00,
2013-09-21 06:47:00,72.8,47.8,29.72,WNW,298,17.0,17.0,41,0.00,,CLR,0.00,12.00,VWS V14.01,2013-09-21 13:47:00,
2013-09-21 06:52:00,72.8,47.8,29.72,WNW,296,14.0,15.0,41,0.00,,CLR,0.00,16.00,VWS V14.01,2013-09-21 13:52:00,
2013-09-21 06:57:00,73.0,48.6,29.72,WNW,289,9.0,21.0,42,0.00,,CLR,0.00,25.00,VWS V14.01,2013-09-21 13:57:00,
2013-09-21 07:02:00,72.8,49.6,29.72,NW,304,10.0,19.0,44,0.00,,CLR,0.00,26.00,VWS V14.01,2013-09-21 14:02:00,
2013-09-21 07:07:00,72.5,48.8,29.72,WNW,302,13.0,23.0,43,0.00,,CLR,0.00,30.00,VWS V14.01,2013-09-21 14:07:00,
2013-09-21 07:12:00,72.7,47.7,29.72,West,278,14.0,21.0,41,0.00,,CLR,0.00,62.00,VWS V14.01,2013-09-21 14:12:00,
2013-09-21 07:17:00,72.8,47.8,29.72,WNW,303,8.0,19.0,41,0.00,,CLR,0.00,58.00,VWS V14.01,2013-09-21 14:17:00,
2013-09-21 07:22:00,73.0,47.9,29.72,WNW,292,11.0,15.0,41,0.00,,CLR,0.00,46.00,VWS V14.01,2013-09-21 14:22:00,
2013-09-21 07:27:00,73.2,48.1,29.72,NNW,328,11.0,17.0,41,0.00,,CLR,0.00,44.00,VWS V14.01,2013-09-21 14:27:00,
2013-09-21 07:32:00,73.3,48.2,29.72,NW,321,12.0,19.0,41,0.00,,CLR,0.00,32.00,VWS V14.01,2013-09-21 14:32:00,
2013-09-21 07:37:00,73.3,49.5,29.72,WNW,295,16.0,19.0,43,0.00,,CLR,0.00,33.00,VWS V14.01,2013-09-21 14:37:00,
2013-09-21 07:42:00,73.3,48.8,29.72,NW,316,11.0,19.0,42,0.00,,CLR,0.00,35.00,VWS V14.01,2013-09-21 14:42:00,
2013-09-21 07:47:00,73.5,48.4,29.73,West,279,14.0,18.0,41,0.00,,CLR,0.00,178.00,VWS V14.01,2013-09-21 14:47:00,
2013-09-21 07:52:00,73.9,48.1,29.73,West,262,12.0,18.0,40,0.00,,CLR,0.00,37.00,VWS V14.01,2013-09-21 14:52:00,
2013-09-21 07:57:00,74.4,46.5,29.73,WNW,287,10.0,16.0,37,0.00,,CLR,0.00,37.00,VWS V14.01,2013-09-21 14:57:00,
2013-09-21 08:02:00,74.9,45.4,29.73,WSW,258,8.0,14.0,35,0.00,,CLR,0.00,39.00,VWS V14.01,2013-09-21 15:02:00,
2013-09-21 08:07:00,75.8,44.7,29.73,WNW,288,5.0,15.0,33,0.00,,CLR,0.00,105.00,VWS V14.01,2013-09-21 15:07:00,
2013-09-21 08:12:00,76.1,45.7,29.73,WNW,302,16.0,17.0,34,0.00,,CLR,0.00,287.00,VWS V14.01,2013-09-21 15:12:00,
2013-09-21 08:17:00,76.5,46.1,29.73,NW,305,9.0,13.0,34,0.00,,CLR,0.00,304.00,VWS V14.01,2013-09-21 15:17:00,
2013-09-21 08:22:00,77.0,44.9,29.73,WNW,291,8.0,16.0,32,0.00,,CLR,0.00,323.00,VWS V14.01,2013-09-21 15:22:00,
2013-09-21 08:27:00,77.4,44.4,29.73,NW,309,6.0,12.0,31,0.00,,CLR,0.00,341.00,VWS V14.01,2013-09-21 15:27:00,
2013-09-21 08:32:00,77.7,44.7,29.73,West,263,4.0,13.0,31,0.00,,CLR,0.00,359.00,VWS V14.01,2013-09-21 15:32:00,
2013-09-21 08:37:00,78.1,45.9,29.73,WNW,285,5.0,9.0,32,0.00,,CLR,0.00,376.00,VWS V14.01,2013-09-21 15:37:00,
2013-09-21 08:42:00,78.6,44.6,29.73,WNW,286,5.0,11.0,30,0.00,,CLR,0.00,394.00,VWS V14.01,2013-09-21 15:42:00,
2013-09-21 08:47:00,79.2,44.2,29.73,West,280,7.0,13.0,29,0.00,,CLR,0.00,413.00,VWS V14.01,2013-09-21 15:47:00,
2013-09-21 08:52:00,79.8,43.8,29.73,WNW,294,5.0,10.0,28,0.00,,CLR,0.00,431.00,VWS V14.01,2013-09-21 15:52:00,
2013-09-21 08:57:00,80.3,45.2,29.73,WNW,296,10.0,11.0,29,0.00,,CLR,0.00,443.00,VWS V14.01,2013-09-21 15:57:00,
2013-09-21 09:02:00,80.5,43.5,29.74,WNW,296,10.0,12.0,27,0.00,,CLR,0.00,461.00,VWS V14.01,2013-09-21 16:02:00,
2013-09-21 09:07:00,80.7,43.7,29.74,WNW,303,9.0,9.0,27,0.00,,CLR,0.00,478.00,VWS V14.01,2013-09-21 16:07:00,
2013-09-21 09:12:00,81.2,45.0,29.74,WNW,298,4.0,10.0,28,0.00,,CLR,0.00,496.00,VWS V14.01,2013-09-21 16:12:00,
2013-09-21 09:17:00,81.6,44.4,29.74,WNW,293,6.0,8.0,27,0.00,,CLR,0.00,512.00,VWS V14.01,2013-09-21 16:17:00,
2013-09-21 09:22:00,82.6,44.3,29.74,WNW,303,5.0,10.0,26,0.00,,CLR,0.00,527.00,VWS V14.01,2013-09-21 16:22:00,
2013-09-21 09:27:00,83.2,43.8,29.74,NW,318,1.0,5.0,25,0.00,,CLR,0.00,545.00,VWS V14.01,2013-09-21 16:27:00,
2013-09-21 09:32:00,83.8,44.3,29.75,North,351,3.0,5.0,25,0.00,,CLR,0.00,563.00,VWS V14.01,2013-09-21 16:32:00,
2013-09-21 09:37:00,84.0,43.4,29.75,NNE,12,2.0,5.0,24,0.00,,CLR,0.00,573.00,VWS V14.01,2013-09-21 16:37:00,
2013-09-21 09:42:00,84.3,44.7,29.75,North,360,4.0,9.0,25,0.00,,CLR,0.00,591.00,VWS V14.01,2013-09-21 16:42:00,
2013-09-21 09:47:00,84.7,45.0,29.75,WNW,300,4.0,10.0,25,0.00,,CLR,0.00,606.00,VWS V14.01,2013-09-21 16:47:00,
2013-09-21 09:52:00,84.5,44.9,29.75,WNW,303,8.0,12.0,25,0.00,,CLR,0.00,621.00,VWS V14.01,2013-09-21 16:52:00,
2013-09-21 09:57:00,84.5,43.8,29.75,WNW,286,1.0,6.0,24,0.00,,CLR,0.00,635.00,VWS V14.01,2013-09-21 16:57:00,
2013-09-21 10:02:00,84.7,44.0,29.75,WSW,242,4.0,8.0,24,0.00,,CLR,0.00,649.00,VWS V14.01,2013-09-21 17:02:00,
2013-09-21 10:07:00,85.3,43.3,29.75,WNW,290,5.0,7.0,23,0.00,,CLR,0.00,663.00,VWS V14.01,2013-09-21 17:07:00,
2013-09-21 10:13:00,85.9,43.8,29.75,West,264,6.0,10.0,23,0.00,,CLR,0.00,675.00,VWS V14.01,2013-09-21 17:13:00,
2013-09-21 10:18:00,86.3,43.0,29.75,West,273,2.0,4.0,22,0.00,,CLR,0.00,687.00,VWS V14.01,2013-09-21 17:18:00,
2013-09-21 10:23:00,86.1,42.8,29.75,SW,232,3.0,4.0,22,0.00,,CLR,0.00,701.00,VWS V14.01,2013-09-21 17:23:00,
2013-09-21 10:28:00,86.5,44.3,29.75,SW,228,4.0,5.0,23,0.00,,CLR,0.00,712.00,VWS V14.01,2013-09-21 17:28:00,
2013-09-21 10:33:00,86.1,42.8,29.74,SW,223,2.0,4.0,22,0.00,,CLR,0.00,724.00,VWS V14.01,2013-09-21 17:33:00,
2013-09-21 10:38:00,86.1,48.2,29.74,SW,223,0.0,3.0,27,0.00,,CLR,0.00,735.00,VWS V14.01,2013-09-21 17:38:00,
2013-09-21 10:43:00,86.3,44.2,29.74,SW,220,1.0,3.0,23,0.00,,CLR,0.00,747.00,VWS V14.01,2013-09-21 17:43:00,
2013-09-21 10:48:00,86.1,46.2,29.74,SW,219,3.0,4.0,25,0.00,,CLR,0.00,756.00,VWS V14.01,2013-09-21 17:48:00,
2013-09-21 10:53:00,86.7,42.1,29.74,SW,227,0.0,5.0,21,0.00,,CLR,0.00,766.00,VWS V14.01,2013-09-21 17:53:00,
2013-09-21 10:58:00,87.2,47.1,29.74,SW,227,3.0,3.0,25,0.00,,CLR,0.00,773.00,VWS V14.01,2013-09-21 17:58:00,
2013-09-21 11:03:00,86.5,43.2,29.74,SW,227,0.0,1.0,22,0.00,,CLR,0.00,784.00,VWS V14.01,2013-09-21 18:03:00,
2013-09-21 11:08:00,87.0,44.8,29.74,SW,227,2.0,6.0,23,0.00,,CLR,0.00,793.00,VWS V14.01,2013-09-21 18:08:00,
2013-09-21 11:13:00,87.8,44.3,29.74,WSW,244,5.0,5.0,22,0.00,,CLR,0.00,798.00,VWS V14.01,2013-09-21 18:13:00,
2013-09-21 11:18:00,87.6,48.5,29.73,SW,227,2.0,4.0,26,0.00,,CLR,0.00,805.00,VWS V14.01,2013-09-21 18:18:00,
2013-09-21 11:23:00,87.8,46.5,29.73,SW,219,0.0,2.0,24,0.00,,CLR,0.00,816.00,VWS V14.01,2013-09-21 18:23:00,
2013-09-21 11:28:00,87.6,46.4,29.73,SW,219,1.0,1.0,24,0.00,,CLR,0.00,823.00,VWS V14.01,2013-09-21 18:28:00,
2013-09-21 11:33:00,88.0,43.2,29.73,SW,219,0.0,0.0,21,0.00,,CLR,0.00,830.00,VWS V14.01,2013-09-21 18:33:00,
2013-09-21 11:38:00,87.6,45.3,29.73,SW,219,3.0,3.0,23,0.00,,CLR,0.00,833.00,VWS V14.01,2013-09-21 18:38:00,
2013-09-21 11:43:00,87.4,46.2,29.73,SW,219,1.0,3.0,24,0.00,,CLR,0.00,842.00,VWS V14.01,2013-09-21 18:43:00,
2013-09-21 11:48:00,88.0,45.6,29.73,SW,219,0.0,3.0,23,0.00,,CLR,0.00,844.00,VWS V14.01,2013-09-21 18:48:00,
2013-09-21 11:53:00,88.2,43.4,29.73,SW,219,1.0,3.0,21,0.00,,CLR,0.00,847.00,VWS V14.01,2013-09-21 18:53:00,
2013-09-21 11:58:00,88.8,42.6,29.73,SW,219,1.0,1.0,20,0.00,,CLR,0.00,851.00,VWS V14.01,2013-09-21 18:58:00,
2013-09-21 12:03:00,89.5,46.8,29.72,West,273,0.0,4.0,23,0.00,,CLR,0.00,854.00,VWS V14.01,2013-09-21 19:03:00,
2013-09-21 12:08:00,89.3,47.8,29.72,West,273,0.0,0.0,24,0.00,,CLR,0.00,858.00,VWS V14.01,2013-09-21 19:08:00,
2013-09-21 12:13:00,89.7,44.6,29.72,West,264,2.0,2.0,21,0.00,,CLR,0.00,863.00,VWS V14.01,2013-09-21 19:13:00,
2013-09-21 12:18:00,90.3,45.1,29.71,SW,228,0.0,4.0,21,0.00,,CLR,0.00,867.00,VWS V14.01,2013-09-21 19:18:00,
2013-09-21 12:23:00,90.7,45.4,29.71,SW,228,0.0,3.0,21,0.00,,CLR,0.00,867.00,VWS V14.01,2013-09-21 19:23:00,
2013-09-21 12:28:00,91.0,44.4,29.71,WSW,240,0.0,4.0,20,0.00,,CLR,0.00,865.00,VWS V14.01,2013-09-21 19:28:00,
2013-09-21 12:33:00,90.1,46.2,29.71,SW,228,0.0,4.0,22,0.00,,CLR,0.00,867.00,VWS V14.01,2013-09-21 19:33:00,
2013-09-21 12:38:00,90.3,43.8,29.71,SW,228,0.0,3.0,20,0.00,,CLR,0.00,867.00,VWS V14.01,2013-09-21 19:38:00,
2013-09-21 12:43:00,91.0,45.7,29.71,SW,235,1.0,6.0,21,0.00,,CLR,0.00,860.00,VWS V14.01,2013-09-21 19:43:00,
2013-09-21 12:48:00,92.1,45.3,29.70,NW,317,5.0,12.0,20,0.00,,CLR,0.00,860.00,VWS V14.01,2013-09-21 19:48:00,
2013-09-21 12:53:00,92.1,44.0,29.70,NW,305,6.0,6.0,19,0.00,,CLR,0.00,860.00,VWS V14.01,2013-09-21 19:53:00,
2013-09-21 12:58:00,92.3,42.7,29.70,WNW,289,6.0,11.0,18,0.00,,CLR,0.00,856.00,VWS V14.01,2013-09-21 19:58:00,
2013-09-21 13:04:00,92.5,44.3,29.69,WNW,282,11.0,12.0,19,0.00,,CLR,0.00,856.00,VWS V14.01,2013-09-21 20:04:00,
2013-09-21 13:09:00,92.5,44.3,29.69,NNW,346,4.0,12.0,19,0.00,,CLR,0.00,854.00,VWS V14.01,2013-09-21 20:09:00,
2013-09-21 13:14:00,92.1,44.0,29.69,NNW,329,6.0,10.0,19,0.00,,CLR,0.00,849.00,VWS V14.01,2013-09-21 20:14:00,
2013-09-21 13:19:00,92.1,41.1,29.68,NNE,13,3.0,9.0,17,0.00,,CLR,0.00,849.00,VWS V14.01,2013-09-21 20:19:00,
2013-09-21 13:24:00,92.9,41.7,29.68,NNW,327,7.0,12.0,17,0.00,,CLR,0.00,849.00,VWS V14.01,2013-09-21 20:24:00,
2013-09-21 13:29:00,92.7,41.5,29.68,WNW,298,3.0,14.0,17,0.00,,CLR,0.00,840.00,VWS V14.01,2013-09-21 20:29:00,
2013-09-21 13:34:00,93.4,43.6,29.67,NW,323,7.0,10.0,18,0.00,,CLR,0.00,842.00,VWS V14.01,2013-09-21 20:34:00,
2013-09-21 13:39:00,93.6,42.3,29.67,North,350,8.0,11.0,17,0.00,,CLR,0.00,833.00,VWS V14.01,2013-09-21 20:39:00,
2013-09-21 13:44:00,93.8,42.4,29.67,West,264,9.0,18.0,17,0.00,,CLR,0.00,826.00,VWS V14.01,2013-09-21 20:44:00,
2013-09-21 13:49:00,93.4,42.1,29.67,West,281,12.0,21.0,17,0.00,,CLR,0.00,823.00,VWS V14.01,2013-09-21 20:49:00,
2013-09-21 13:54:00,93.4,42.1,29.67,West,261,6.0,18.0,17,0.00,,CLR,0.00,814.00,VWS V14.01,2013-09-21 20:54:00,
2013-09-21 13:59:00,93.2,40.4,29.67,NW,315,9.0,15.0,16,0.00,,CLR,0.00,807.00,VWS V14.01,2013-09-21 20:59:00,
2013-09-21 14:04:00,93.2,43.4,29.66,West,259,4.0,18.0,18,0.00,,CLR,0.00,800.00,VWS V14.01,2013-09-21 21:04:00,
2013-09-21 14:09:00,93.4,42.1,29.66,WNW,296,11.0,20.0,17,0.00,,CLR,0.00,795.00,VWS V14.01,2013-09-21 21:09:00,
2013-09-21 14:14:00,93.6,40.7,29.66,WNW,296,15.0,17.0,16,0.00,,CLR,0.00,782.00,VWS V14.01,2013-09-21 21:14:00,
2013-09-21 14:19:00,93.8,40.9,29.65,WNW,298,9.0,16.0,16,0.00,,CLR,0.00,779.00,VWS V14.01,2013-09-21 21:19:00,
2013-09-21 14:24:00,94.3,41.3,29.65,WNW,298,12.0,20.0,16,0.00,,CLR,0.00,770.00,VWS V14.01,2013-09-21 21:24:00,
2013-09-21 14:29:00,94.3,41.3,29.65,WNW,300,18.0,23.0,16,0.00,,CLR,0.00,759.00,VWS V14.01,2013-09-21 21:29:00,
2013-09-21 14:35:00,94.5,41.4,29.64,NW,311,8.0,25.0,16,0.00,,CLR,0.00,749.00,VWS V14.01,2013-09-21 21:35:00,
2013-09-21 14:40:00,94.3,39.6,29.64,WNW,302,12.0,21.0,15,0.00,,CLR,0.00,742.00,VWS V14.01,2013-09-21 21:40:00,
2013-09-21 14:45:00,94.0,41.0,29.64,WNW,286,16.0,26.0,16,0.00,,CLR,0.00,731.00,VWS V14.01,2013-09-21 21:45:00,
2013-09-21 14:50:00,94.3,41.3,29.64,NNW,343,13.0,24.0,16,0.00,,CLR,0.00,717.00,VWS V14.01,2013-09-21 21:50:00,
2013-09-21 14:55:00,94.3,41.3,29.64,NW,308,12.0,17.0,16,0.00,,CLR,0.00,708.00,VWS V14.01,2013-09-21 21:55:00,
2013-09-21 15:00:00,94.5,41.4,29.63,West,273,12.0,22.0,16,0.00,,CLR,0.00,693.00,VWS V14.01,2013-09-21 22:00:00,
2013-09-21 15:05:00,94.7,39.9,29.63,WNW,286,22.0,23.0,15,0.00,,CLR,0.00,680.00,VWS V14.01,2013-09-21 22:05:00,
2013-09-21 15:10:00,94.5,39.8,29.63,WNW,300,13.0,22.0,15,0.00,,CLR,0.00,670.00,VWS V14.01,2013-09-21 22:10:00,
2013-09-21 15:15:00,94.5,39.8,29.62,WNW,284,15.0,22.0,15,0.00,,CLR,0.00,657.00,VWS V14.01,2013-09-21 22:15:00,
2013-09-21 15:20:00,94.5,38.0,29.62,WNW,302,9.0,18.0,14,0.00,,CLR,0.00,643.00,VWS V14.01,2013-09-21 22:20:00,
2013-09-21 15:25:00,94.5,39.8,29.62,WNW,300,6.0,15.0,15,0.00,,CLR,0.00,624.00,VWS V14.01,2013-09-21 22:25:00,
2013-09-21 15:30:00,94.5,39.8,29.62,WNW,302,13.0,21.0,15,0.00,,CLR,0.00,617.00,VWS V14.01,2013-09-21 22:30:00,
2013-09-21 15:35:00,94.0,41.0,29.62,NW,323,11.0,22.0,16,0.00,,CLR,0.00,599.00,VWS V14.01,2013-09-21 22:35:00,
2013-09-21 15:40:00,93.8,40.9,29.62,NW,308,17.0,23.0,16,0.00,,CLR,0.00,580.00,VWS V14.01,2013-09-21 22:40:00,
2013-09-21 15:45:00,93.6,39.0,29.61,WNW,291,16.0,23.0,15,0.00,,CLR,0.00,566.00,VWS V14.01,2013-09-21 22:45:00,
2013-09-21 15:50:00,93.6,42.3,29.61,NW,320,12.0,21.0,17,0.00,,CLR,0.00,552.00,VWS V14.01,2013-09-21 22:50:00,
2013-09-21 15:55:00,93.6,42.3,29.61,NW,314,8.0,23.0,17,0.00,,CLR,0.00,540.00,VWS V14.01,2013-09-21 22:55:00,
2013-09-21 16:00:00,93.6,43.8,29.61,WNW,297,15.0,20.0,18,0.00,,CLR,0.00,520.00,VWS V14.01,2013-09-21 23:00:00,
2013-09-21 16:05:00,93.4,40.5,29.61,WNW,288,13.0,21.0,16,0.00,,CLR,0.00,499.00,VWS V14.01,2013-09-21 23:05:00,
2013-09-21 16:10:00,93.2,43.4,29.61,WNW,285,18.0,23.0,18,0.00,,CLR,0.00,489.00,VWS V14.01,2013-09-21 23:10:00,
2013-09-21 16:15:00,92.7,43.0,29.61,NNW,340,9.0,21.0,18,0.00,,CLR,0.00,469.00,VWS V14.01,2013-09-21 23:15:00,
2013-09-21 16:20:00,92.9,41.7,29.61,WNW,298,8.0,17.0,17,0.00,,CLR,0.00,452.00,VWS V14.01,2013-09-21 23:20:00,
2013-09-21 16:25:00,92.5,48.2,29.61,WNW,299,13.0,24.0,22,0.00,,CLR,0.00,438.00,VWS V14.01,2013-09-21 23:25:00,
2013-09-21 16:30:00,92.7,38.3,29.61,NW,308,9.0,20.0,15,0.00,,CLR,0.00,422.00,VWS V14.01,2013-09-21 23:30:00,
2013-09-21 16:35:00,92.5,41.4,29.61,WNW,303,4.0,22.0,17,0.00,,CLR,0.00,401.00,VWS V14.01,2013-09-21 23:35:00,
2013-09-21 16:40:00,92.3,42.7,29.61,West,261,10.0,21.0,18,0.00,,CLR,0.00,380.00,VWS V14.01,2013-09-21 23:40:00,
2013-09-21 16:45:00,92.3,44.1,29.60,WNW,286,16.0,26.0,19,0.00,,CLR,0.00,352.00,VWS V14.01,2013-09-21 23:45:00,
2013-09-21 16:50:00,91.8,43.7,29.60,WNW,303,13.0,21.0,19,0.00,,CLR,0.00,338.00,VWS V14.01,2013-09-21 23:50:00,
2013-09-21 16:55:00,91.4,43.4,29.60,West,267,13.0,21.0,19,0.00,,CLR,0.00,315.00,VWS V14.01,2013-09-21 23:55:00,
2013-09-21 17:00:00,91.0,43.1,29.60,West,279,15.0,19.0,19,0.00,,CLR,0.00,301.00,VWS V14.01,2013-09-22 00:00:00,
2013-09-21 17:05:00,91.0,41.7,29.60,NW,310,18.0,26.0,18,0.00,,CLR,0.00,285.00,VWS V14.01,2013-09-22 00:05:00,
2013-09-21 17:11:00,90.3,42.5,29.60,West,280,19.0,21.0,19,0.00,,CLR,0.00,267.00,VWS V14.01,2013-09-22 00:11:00,
2013-09-21 17:16:00,90.3,42.5,29.60,NW,310,16.0,20.0,19,0.00,,CLR,0.00,248.00,VWS V14.01,2013-09-22 00:16:00,
2013-09-21 17:21:00,90.1,45.0,29.60,WNW,284,11.0,19.0,21,0.00,,CLR,0.00,227.00,VWS V14.01,2013-09-22 00:21:00,
2013-09-21 17:26:00,89.9,44.8,29.60,West,279,12.0,25.0,21,0.00,,CLR,0.00,209.00,VWS V14.01,2013-09-22 00:26:00,
2013-09-21 17:31:00,89.5,44.5,29.60,WNW,294,16.0,24.0,21,0.00,,CLR,0.00,190.00,VWS V14.01,2013-09-22 00:31:00,
2013-09-21 17:36:00,89.0,45.3,29.60,WNW,285,15.0,24.0,22,0.00,,CLR,0.00,167.00,VWS V14.01,2013-09-22 00:36:00,
2013-09-21 17:41:00,88.6,44.9,29.60,NW,314,8.0,22.0,22,0.00,,CLR,0.00,146.00,VWS V14.01,2013-09-22 00:41:00,
2013-09-21 17:46:00,88.4,47.1,29.59,WNW,290,15.0,26.0,24,0.00,,CLR,0.00,128.00,VWS V14.01,2013-09-22 00:46:00,
2013-09-21 17:51:00,88.2,45.8,29.59,NW,312,10.0,17.0,23,0.00,,CLR,0.00,107.00,VWS V14.01,2013-09-22 00:51:00,
2013-09-21 17:56:00,88.0,47.8,29.59,WNW,288,17.0,23.0,25,0.00,,CLR,0.00,90.00,VWS V14.01,2013-09-22 00:56:00,
2013-09-21 18:01:00,87.4,49.3,29.59,NW,312,17.0,24.0,27,0.00,,CLR,0.00,76.00,VWS V14.01,2013-09-22 01:01:00,
2013-09-21 18:06:00,87.0,49.0,29.59,WNW,288,18.0,28.0,27,0.00,,CLR,0.00,62.00,VWS V14.01,2013-09-22 01:06:00,
2013-09-21 18:11:00,86.5,49.6,29.59,WNW,286,21.0,26.0,28,0.00,,CLR,0.00,25.00,VWS V14.01,2013-09-22 01:11:00,
2013-09-21 18:16:00,86.1,48.2,29.59,WNW,291,19.0,23.0,27,0.00,,CLR,0.00,19.00,VWS V14.01,2013-09-22 01:16:00,
2013-09-21 18:21:00,85.7,47.9,29.59,WNW,284,11.0,25.0,27,0.00,,CLR,0.00,16.00,VWS V14.01,2013-09-22 01:21:00,
2013-09-21 18:26:00,85.5,48.7,29.59,WNW,294,17.0,22.0,28,0.00,,CLR,0.00,12.00,VWS V14.01,2013-09-22 01:26:00,
2013-09-21 18:31:00,85.3,47.6,29.59,WNW,293,13.0,23.0,27,0.00,,CLR,0.00,11.00,VWS V14.01,2013-09-22 01:31:00,
2013-09-21 18:36:00,85.1,48.4,29.59,NW,315,19.0,23.0,28,0.00,,CLR,0.00,7.00,VWS V14.01,2013-09-22 01:36:00,
2013-09-21 18:41:00,84.9,48.2,29.59,West,281,15.0,22.0,28,0.00,,CLR,0.00,5.00,VWS V14.01,2013-09-22 01:41:00,
2013-09-21 18:46:00,84.7,47.1,29.59,West,267,8.0,20.0,27,0.00,,CLR,0.00,0.00,VWS V14.01,2013-09-22 01:46:00,
2013-09-21 18:51:00,84.7,47.1,29.59,NW,311,11.0,17.0,27,0.00,,CLR,0.00,0.00,VWS V14.01,2013-09-22 01:51:00,
2013-09-21 18:56:00,84.5,47.8,29.59,NW,306,21.0,27.0,28,0.00,,CLR,0.00,0.00,VWS V14.01,2013-09-22 01:56:00,
2013-09-21 19:01:00,84.1,46.5,29.59,WNW,290,14.0,29.0,27,0.00,,CLR,0.00,0.00,VWS V14.01,2013-09-22 02:01:00,
2013-09-21 19:06:00,83.8,46.3,29.59,WNW,284,5.0,21.0,27,0.00,,CLR,0.00,0.00,VWS V14.01,2013-09-22 02:06:00,
2013-09-21 19:11:00,83.6,47.1,29.59,WNW,302,23.0,24.0,28,0.00,,CLR,0.00,0.00,VWS V14.01,2013-09-22 02:11:00,
2013-09-21 19:16:00,83.2,47.7,29.59,WNW,303,14.0,30.0,29,0.00,,CLR,0.00,0.00,VWS V14.01,2013-09-22 02:16:00,
2013-09-21 19:21:00,83.0,46.6,29.59,NW,308,6.0,21.0,28,0.00,,CLR,0.00,0.00,VWS V14.01,2013-09-22 02:21:00,
2013-09-21 19:26:00,82.8,47.3,29.59,NW,312,9.0,20.0,29,0.00,,CLR,0.00,0.00,VWS V14.01,2013-09-22 02:26:00,
2013-09-21 19:31:00,82.4,47.9,29.60,WNW,299,12.0,24.0,30,0.00,,CLR,0.00,0.00,VWS V14.01,2013-09-22 02:31:00,
2013-09-21 19:36:00,82.2,48.6,29.60,WNW,299,14.0,25.0,31,0.00,,CLR,0.00,0.00,VWS V14.01,2013-09-22 02:36:00,
2013-09-21 19:41:00,81.6,48.9,29.60,WNW,292,16.0,23.0,32,0.00,,CLR,0.00,0.00,VWS V14.01,2013-09-22 02:41:00,
2013-09-21 19:46:00,81.2,51.0,29.60,NW,304,24.0,27.0,35,0.00,,CLR,0.00,0.00,VWS V14.01,2013-09-22 02:46:00,
2013-09-21 19:51:00,80.7,50.5,29.60,WNW,289,25.0,27.0,35,0.00,,CLR,0.00,0.00,VWS V14.01,2013-09-22 02:51:00,
2013-09-21 19:56:00,80.3,50.2,29.60,WNW,302,22.0,28.0,35,0.00,,CLR,0.00,0.00,VWS V14.01,2013-09-22 02:56:00,
2013-09-21 20:01:00,79.9,49.8,29.61,WNW,288,12.0,25.0,35,0.00,,CLR,0.00,0.00,VWS V14.01,2013-09-22 03:01:00,
2013-09-21 20:06:00,80.1,49.2,29.61,NNW,328,15.0,27.0,34,0.00,,CLR,0.00,0.00,VWS V14.01,2013-09-22 03:06:00,
2013-09-21 20:11:00,79.9,49.0,29.61,WNW,300,22.0,28.0,34,0.00,,CLR,0.00,0.00,VWS V14.01,2013-09-22 03:11:00,
2013-09-21 20:16:00,79.8,48.2,29.61,WNW,291,19.0,30.0,33,0.00,,CLR,0.00,0.00,VWS V14.01,2013-09-22 03:16:00,
2013-09-21 20:21:00,79.6,49.6,29.61,WNW,298,16.0,24.0,35,0.00,,CLR,0.00,0.00,VWS V14.01,2013-09-22 03:21:00,
2013-09-21 20:26:00,79.6,47.2,29.61,WNW,294,18.0,30.0,32,0.00,,CLR,0.00,0.00,VWS V14.01,2013-09-22 03:26:00,
2013-09-21 20:31:00,79.6,48.0,29.62,West,280,17.0,29.0,33,0.00,,CLR,0.00,0.00,VWS V14.01,2013-09-22 03:31:00,
2013-09-21 20:36:00,79.6,48.0,29.62,NW,321,12.0,28.0,33,0.00,,CLR,0.00,0.00,VWS V14.01,2013-09-22 03:36:00,
2013-09-21 20:41:00,79.4,48.6,29.62,North,355,9.0,29.0,34,0.00,,CLR,0.00,0.00,VWS V14.01,2013-09-22 03:41:00,
2013-09-21 20:46:00,79.2,48.4,29.62,WNW,295,16.0,22.0,34,0.00,,CLR,0.00,0.00,VWS V14.01,2013-09-22 03:46:00,
2013-09-21 20:51:00,79.2,47.7,29.62,WNW,293,15.0,20.0,33,0.00,,CLR,0.00,0.00,VWS V14.01,2013-09-22 03:51:00,
2013-09-21 20:56:00,79.0,49.0,29.62,NW,309,11.0,16.0,35,0.00,,CLR,0.00,0.00,VWS V14.01,2013-09-22 03:56:00,
2013-09-21 21:01:00,78.6,47.9,29.62,NNW,338,14.0,20.0,34,0.00,,CLR,0.00,0.00,VWS V14.01,2013-09-22 04:01:00,
2013-09-21 21:02:00,78.6,48.7,29.62,NW,325,14.0,20.0,35,0.00,,CLR,0.00,0.00,VWS V14.01,2013-09-22 04:02:00,
2013-09-21 21:03:00,78.6,48.7,29.62,NNW,338,17.0,22.0,35,0.00,,CLR,0.00,0.00,VWS V14.01,2013-09-22 04:03:00,
2013-09-21 21:04:00,78.6,48.7,29.62,WNW,298,18.0,23.0,35,0.00,,CLR,0.00,0.00,VWS V14.01,2013-09-22 04:04:00,
2013-09-21 21:09:00,78.3,47.7,29.62,NNW,348,14.0,22.0,34,0.00,,CLR,0.00,0.00,VWS V14.01,2013-09-22 04:09:00,
2013-09-21 21:10:00,78.3,46.9,29.62,NW,310,8.0,22.0,33,0.00,,CLR,0.00,0.00,VWS V14.01,2013-09-22 04:10:00,
2013-09-21 21:15:00,78.3,46.9,29.62,WNW,301,19.0,25.0,33,0.00,,CLR,0.00,0.00,VWS V14.01,2013-09-22 04:15:00,
2013-09-21 21:20:00,78.3,46.0,29.62,NNW,340,13.0,22.0,32,0.00,,CLR,0.00,0.00,VWS V14.01,2013-09-22 04:20:00,
2013-09-21 21:25:00,78.3,48.4,29.62,NNW,338,15.0,22.0,35,0.00,,CLR,0.00,0.00,VWS V14.01,2013-09-22 04:25:00,
2013-09-21 21:30:00,78.1,49.0,29.62,WNW,302,9.0,26.0,36,0.00,,CLR,0.00,0.00,VWS V14.01,2013-09-22 04:30:00,
2013-09-21 21:35:00,77.6,50.0,29.62,WNW,299,10.0,18.0,38,0.00,,CLR,0.00,0.00,VWS V14.01,2013-09-22 04:35:00,
2013-09-21 21:40:00,77.2,50.3,29.62,NNW,329,20.0,21.0,39,0.00,,CLR,0.00,0.00,VWS V14.01,2013-09-22 04:40:00,
2013-09-21 21:45:00,77.0,51.5,29.62,WNW,299,12.0,20.0,41,0.00,,CLR,0.00,0.00,VWS V14.01,2013-09-22 04:45:00,
2013-09-21 21:50:00,76.7,51.2,29.62,WNW,292,14.0,27.0,41,0.00,,CLR,0.00,0.00,VWS V14.01,2013-09-22 04:50:00,
2013-09-21 21:55:00,76.5,49.7,29.62,WNW,290,19.0,26.0,39,0.00,,CLR,0.00,0.00,VWS V14.01,2013-09-22 04:55:00,
2013-09-21 22:00:00,76.5,51.7,29.63,NW,316,15.0,21.0,42,0.00,,CLR,0.00,0.00,VWS V14.01,2013-09-22 05:00:00,
2013-09-21 22:05:00,76.1,51.4,29.63,NW,313,16.0,23.0,42,0.00,,CLR,0.00,0.00,VWS V14.01,2013-09-22 05:05:00,
2013-09-21 22:10:00,75.6,52.8,29.63,WNW,301,14.0,23.0,45,0.00,,CLR,0.00,0.00,VWS V14.01,2013-09-22 05:10:00,
2013-09-21 22:15:00,75.4,52.0,29.62,NW,306,14.0,21.0,44,0.00,,CLR,0.00,0.00,VWS V14.01,2013-09-22 05:15:00,
2013-09-21 22:20:00,75.4,52.0,29.62,NW,320,12.0,25.0,44,0.00,,CLR,0.00,0.00,VWS V14.01,2013-09-22 05:20:00,
2013-09-21 22:25:00,75.3,52.5,29.62,NNW,336,13.0,23.0,45,0.00,,CLR,0.00,0.00,VWS V14.01,2013-09-22 05:25:00,
2013-09-21 22:31:00,74.9,52.8,29.62,NW,313,16.0,21.0,46,0.00,,CLR,0.00,0.00,VWS V14.01,2013-09-22 05:31:00,
2013-09-21 22:36:00,74.7,53.2,29.62,NNW,338,17.0,26.0,47,0.00,,CLR,0.00,0.00,VWS V14.01,2013-09-22 05:36:00,
2013-09-21 22:41:00,74.7,52.6,29.62,NW,304,23.0,31.0,46,0.00,,CLR,0.00,0.00,VWS V14.01,2013-09-22 05:41:00,
2013-09-21 22:46:00,74.6,53.1,29.62,NNW,344,13.0,27.0,47,0.00,,CLR,0.00,0.00,VWS V14.01,2013-09-22 05:46:00,
2013-09-21 22:51:00,74.2,52.7,29.62,WNW,292,17.0,19.0,47,0.00,,CLR,0.00,0.00,VWS V14.01,2013-09-22 05:51:00,
2013-09-21 22:56:00,74.0,53.1,29.62,WNW,292,15.0,16.0,48,0.00,,CLR,0.00,0.00,VWS V14.01,2013-09-22 05:56:00,
2013-09-21 23:01:00,74.2,52.1,29.62,NW,304,16.0,16.0,46,0.00,,CLR,0.00,0.00,VWS V14.01,2013-09-22 06:01:00,
2013-09-21 23:06:00,74.4,51.1,29.62,WNW,289,17.0,17.0,44,0.00,,CLR,0.00,0.00,VWS V14.01,2013-09-22 06:06:00,
2013-09-21 23:11:00,74.6,51.3,29.62,NNW,331,12.0,20.0,44,0.00,,CLR,0.00,0.00,VWS V14.01,2013-09-22 06:11:00,
2013-09-21 23:16:00,74.6,51.3,29.62,NW,315,10.0,16.0,44,0.00,,CLR,0.00,0.00,VWS V14.01,2013-09-22 06:16:00,
2013-09-21 23:21:00,74.6,50.7,29.62,WNW,285,15.0,15.0,43,0.00,,CLR,0.00,0.00,VWS V14.01,2013-09-22 06:21:00,
2013-09-21 23:26:00,74.6,51.3,29.62,NW,309,8.0,12.0,44,0.00,,CLR,0.00,0.00,VWS V14.01,2013-09-22 06:26:00,
2013-09-21 23:31:00,74.7,50.7,29.62,WNW,292,18.0,22.0,43,0.00,,CLR,0.00,0.00,VWS V14.01,2013-09-22 06:31:00,
2013-09-21 23:36:00,74.7,50.1,29.62,West,279,7.0,14.0,42,0.00,,CLR,0.00,0.00,VWS V14.01,2013-09-22 06:36:00,
2013-09-21 23:41:00,74.9,50.3,29.62,WNW,293,18.0,23.0,42,0.00,,CLR,0.00,0.00,VWS V14.01,2013-09-22 06:41:00,
2013-09-21 23:46:00,74.9,50.9,29.63,WNW,301,12.0,20.0,43,0.00,,CLR,0.00,0.00,VWS V14.01,2013-09-22 06:46:00,
2013-09-21 23:51:00,74.7,50.7,29.63,WNW,301,13.0,19.0,43,0.00,,CLR,0.00,0.00,VWS V14.01,2013-09-22 06:51:00,
2013-09-21 23:56:00,74.6,51.3,29.63,WNW,285,16.0,22.0,44,0.00,,CLR,0.00,0.00,VWS V14.01,2013-09-22 06:56:00,